Time;durP1;ratioP1;P1;durP2;ratioP2;P2;SDS_P1;SDS_P2;PMS_P1;PMS_P2;Temp;Humidity;BMP_temperature;BMP_pressure;BME280_temperature;BME280_humidity;BME280_pressure;Samples;Min_cycle;Max_cycle;Signal;HPM_P1;HPM_P2
2022/01/08 00:01:11;;;;;;;;;;;;;;;1.42;99.36;101044.25;5093740;28;19912;-36
2022/01/08 00:03:37;;;;;;;;;;;;;;;1.41;99.70;101045.25;5093686;28;19961;-36
2022/01/08 00:06:02;;;;;;;;;;;;;;;1.39;99.43;101049.91;5094384;28;20343;-36
2022/01/08 00:08:27;;;;;;;;;;;;;;;1.39;99.48;101052.59;5093634;28;20328;-36
2022/01/08 00:10:54;;;;;;;;;;;;;;;1.36;99.23;101051.06;5093615;28;19912;-36
2022/01/08 00:13:19;;;;;;;;;;;;;;;1.35;99.28;101053.91;5093488;28;19912;-35
2022/01/08 00:15:44;;;;;;;;;;;;;;;1.30;99.23;101051.72;5093627;28;20004;-36
2022/01/08 00:18:09;;;;;;;;;;;;;;;1.27;99.58;101050.25;5093493;28;20433;-36
2022/01/08 00:20:35;;;;;;;;;;;;;;;1.23;99.17;101059.56;5093840;28;19916;-36
2022/01/08 00:23:01;;;;;;;;;;;;;;;1.25;99.29;101072.72;5093442;28;19916;-36
2022/01/08 00:25:26;;;;;;;;;;;;;;;1.24;99.22;101060.41;5093507;28;19918;-36
2022/01/08 00:27:51;;;;;;;;;;;;;;;1.22;99.32;101059.72;5093205;28;19961;-35
2022/01/08 00:30:16;;;;;;;;;;;;;;;1.22;99.67;101067.69;5093377;28;19961;-36
2022/01/08 00:32:42;;;;;;;;;;;;;;;1.23;99.41;101064.91;5093317;28;19966;-36
2022/01/08 00:35:08;;;;;;;;;;;;;;;1.25;99.15;101070.06;5093725;28;20386;-36
2022/01/08 00:37:34;;;;;;;;;;;;;;;1.25;99.33;101070.88;5093289;28;19927;-36
2022/01/08 00:40:00;;;;;;;;;;;;;;;1.27;99.53;101078.72;5093591;28;20295;-36
2022/01/08 00:42:25;;;;;;;;;;;;;;;1.28;99.25;101078.56;5093843;28;19912;-36
2022/01/08 00:44:50;;;;;;;;;;;;;;;1.26;99.34;101072.53;5094192;28;19937;-35
2022/01/08 00:47:16;;;;;;;;;;;;;;;1.26;99.33;101082.38;5093275;28;19973;-36
2022/01/08 00:49:41;;;;;;;;;;;;;;;1.25;99.24;101088.69;5093358;28;19919;-36
2022/01/08 00:52:06;;;;;;;;;;;;;;;1.23;99.35;101094.19;5096298;28;19912;-36
2022/01/08 00:54:32;;;;;;;;;;;;;;;1.22;99.45;101099.66;5097779;28;20348;-36
2022/01/08 00:56:57;;;;;;;;;;;;;;;1.23;99.28;101107.53;5097538;28;20403;-35
2022/01/08 00:59:22;;;;;;;;;;;;;;;1.22;99.43;101095.19;5097151;28;19912;-36
2022/01/08 01:01:47;;;;;;;;;;;;;;;1.22;99.43;101103.19;5097268;28;19912;-36
2022/01/08 01:04:13;;;;;;;;;;;;;;;1.21;99.20;101104.16;5097415;28;19912;-36
2022/01/08 01:06:38;;;;;;;;;;;;;;;1.20;99.70;101102.50;5096735;28;20023;-36
2022/01/08 01:09:03;;;;;;;;;;;;;;;1.21;99.46;101090.84;5097371;28;20312;-36
2022/01/08 01:11:28;;;;;;;;;;;;;;;1.22;99.36;101086.34;5096720;28;20007;-36
2022/01/08 01:13:54;;;;;;;;;;;;;;;1.23;99.10;101088.88;5096785;28;19918;-36
2022/01/08 01:16:19;;;;;;;;;;;;;;;1.23;99.30;101088.88;5096589;28;20368;-36
2022/01/08 01:18:44;;;;;;;;;;;;;;;1.20;99.12;101089.19;5096417;28;19919;-36
2022/01/08 01:21:09;;;;;;;;;;;;;;;1.21;98.99;101082.84;5096803;28;20006;-36
2022/01/08 01:23:37;;;;;;;;;;;;;;;1.19;99.13;101081.38;5096501;28;20348;-36
2022/01/08 01:26:05;;;;;;;;;;;;;;;1.14;98.76;101081.84;5096660;28;19999;-36
2022/01/08 01:47:04;;;;;;;;;;;;;;;1.07;99.38;101114.63;5095757;28;20371;-36
2022/01/08 01:49:29;;;;;;;;;;;;;;;1.06;99.28;101102.31;5096594;28;19941;-36
2022/01/08 01:51:55;;;;;;;;;;;;;;;1.04;99.00;101107.81;5095909;28;19938;-36
2022/01/08 01:54:20;;;;;;;;;;;;;;;1.03;99.12;101106.16;5096441;28;19916;-36
2022/01/08 01:56:46;;;;;;;;;;;;;;;1.05;99.11;101103.31;5095888;28;20308;-35
2022/01/08 01:59:12;;;;;;;;;;;;;;;1.02;98.84;101099.13;5096182;28;19966;-35
2022/01/08 02:01:37;;;;;;;;;;;;;;;0.99;99.42;101094.97;5095592;28;19919;-36
2022/01/08 02:04:03;;;;;;;;;;;;;;;0.96;98.89;101092.63;5095496;28;19912;-35
2022/01/08 02:06:28;;;;;;;;;;;;;;;0.93;99.00;101092.13;5095357;28;19919;-36
2022/01/08 02:08:53;;;;;;;;;;;;;;;0.91;99.34;101097.59;5095414;28;20410;-35
2022/01/08 02:11:20;;;;;;;;;;;;;;;0.93;98.94;101094.81;5095178;28;19912;-35
2022/01/08 02:13:46;;;;;;;;;;;;;;;0.93;99.01;101098.28;5095798;28;20347;-36
2022/01/08 02:16:16;;;;;;;;;;;;;;;0.92;99.32;101093.09;5095234;28;19948;-35
2022/01/08 02:18:42;;;;;;;;;;;;;;;0.88;99.39;101095.28;5095168;28;19919;-35
2022/01/08 02:21:07;;;;;;;;;;;;;;;0.86;98.94;101096.44;5076796;28;19916;-36
2022/01/08 02:23:33;;;;;;;;;;;;;;;0.83;98.96;101102.06;5095341;28;19927;-36
2022/01/08 02:26:02;;;;;;;;;;;;;;;0.82;99.40;101100.41;5095843;28;19912;-35
2022/01/08 02:28:27;;;;;;;;;;;;;;;0.76;99.07;101108.03;5095777;28;19912;-35
2022/01/08 02:30:53;;;;;;;;;;;;;;;0.73;99.54;101099.53;5095184;28;20229;-35
2022/01/08 02:33:22;;;;;;;;;;;;;;;0.67;99.56;101094.84;5095081;28;19919;-35
2022/01/08 02:35:47;;;;;;;;;;;;;;;0.68;99.73;101101.84;5095182;28;20271;-35
2022/01/08 02:38:13;;;;;;;;;;;;;;;0.66;99.52;101102.00;5095110;28;20014;-35
2022/01/08 02:40:38;;;;;;;;;;;;;;;0.67;99.50;101105.50;5095638;28;20003;-35
2022/01/08 02:43:04;;;;;;;;;;;;;;;0.67;99.71;101111.66;5095226;28;19911;-35
2022/01/08 02:45:30;;;;;;;;;;;;;;;0.67;100.00;101109.00;5095366;28;19912;-35
2022/01/08 02:47:56;;;;;;;;;;;;;;;0.69;99.82;101112.34;5094839;28;19919;-35
2022/01/08 02:50:21;;;;;;;;;;;;;;;0.70;99.58;101106.03;5094994;28;19916;-35
2022/01/08 02:52:47;;;;;;;;;;;;;;;0.70;100.00;101114.00;5094611;28;19918;-35
2022/01/08 02:55:14;;;;;;;;;;;;;;;0.70;100.00;101116.66;5094720;28;19912;-35
2022/01/08 02:57:39;;;;;;;;;;;;;;;0.70;99.63;101113.19;5095047;28;20267;-35
2022/01/08 03:00:05;;;;;;;;;;;;;;;0.70;100.00;101123.81;5094627;28;19912;-35
2022/01/08 03:02:30;;;;;;;;;;;;;;;0.69;99.80;101119.50;5094424;28;19916;-35
2022/01/08 03:04:55;;;;;;;;;;;;;;;0.71;99.87;101118.34;5095088;28;19918;-35
2022/01/08 03:07:21;;;;;;;;;;;;;;;0.72;100.00;101113.84;5094246;28;19934;-35
2022/01/08 03:09:55;;;;;;;;;;;;;;;0.71;99.93;101114.84;5094739;28;19912;-36
2022/01/08 03:12:21;;;;;;;;;;;;;;;0.72;99.71;101111.19;5094379;28;19923;-35
2022/01/08 03:14:46;;;;;;;;;;;;;;;0.72;100.00;101113.84;5093818;28;19920;-36
2022/01/08 03:17:11;;;;;;;;;;;;;;;0.70;100.00;101107.84;5094328;28;20015;-36
2022/01/08 03:19:38;;;;;;;;;;;;;;;0.68;100.00;101110.69;5094191;28;20032;-35
2022/01/08 03:22:04;;;;;;;;;;;;;;;0.68;100.00;101108.03;5093975;28;19912;-36
2022/01/08 03:24:30;;;;;;;;;;;;;;;0.69;99.75;101106.19;5094822;28;20272;-35
2022/01/08 03:26:56;;;;;;;;;;;;;;;0.68;99.87;101102.69;5094716;28;19912;-35
2022/01/08 03:29:21;;;;;;;;;;;;;;;0.69;99.83;101109.69;5094445;28;20012;-35
2022/01/08 03:31:46;;;;;;;;;;;;;;;0.69;99.97;101115.00;5094261;28;20363;-35
2022/01/08 03:34:11;;;;;;;;;;;;;;;0.66;100.00;101110.00;5094693;28;20217;-35
2022/01/08 03:36:37;;;;;;;;;;;;;;;0.65;99.83;101121.63;5093698;28;20014;-35
2022/01/08 03:39:02;;;;;;;;;;;;;;;0.65;99.71;101118.16;5094035;28;19931;-35
2022/01/08 03:41:27;;;;;;;;;;;;;;;0.63;100.00;101120.13;5093519;28;19918;-35
2022/01/08 03:43:52;;;;;;;;;;;;;;;0.61;99.70;101124.78;5094097;28;20275;-35
2022/01/08 03:46:22;;;;;;;;;;;;;;;0.58;100.00;101131.25;5094516;28;19958;-35
2022/01/08 03:49:11;;;;;;;;;;;;;;;0.57;99.96;101123.41;5094282;28;19942;-35
2022/01/08 03:51:33;;;;;;;;;;;;;;;0.56;100.00;101127.91;5094018;28;19912;-35
2022/01/08 03:53:58;;;;;;;;;;;;;;;0.57;100.00;101124.25;5094098;28;19919;-35
2022/01/08 03:56:25;;;;;;;;;;;;;;;0.56;100.00;101119.09;5094006;28;20340;-35
2022/01/08 03:58:51;;;;;;;;;;;;;;;0.54;100.00;101118.41;5094313;28;19916;-35
2022/01/08 04:01:16;;;;;;;;;;;;;;;0.52;100.00;101113.25;5093386;28;19919;-35
2022/01/08 04:03:41;;;;;;;;;;;;;;;0.50;100.00;101121.41;5094219;28;19999;-35
2022/01/08 04:06:07;;;;;;;;;;;;;;;0.48;99.83;101126.03;5093775;28;19912;-35
2022/01/08 04:08:32;;;;;;;;;;;;;;;0.47;100.00;101128.88;5093623;28;19916;-35
2022/01/08 04:10:57;;;;;;;;;;;;;;;0.46;100.00;101136.00;5093864;28;19912;-35
2022/01/08 04:13:27;;;;;;;;;;;;;;;0.45;100.00;101138.84;5094344;28;19912;-35
2022/01/08 04:15:56;;;;;;;;;;;;;;;0.45;100.00;101137.00;5093787;28;20018;-35
2022/01/08 04:18:22;;;;;;;;;;;;;;;0.46;99.98;101127.19;5094100;28;20256;-35
2022/01/08 04:23:44;;;;;;;;;;;;;;;0.42;100.00;101139.16;5030975;28;20011;-35
2022/01/08 04:26:09;;;;;;;;;;;;;;;0.41;100.00;101137.47;5032508;28;19987;-35
2022/01/08 04:28:35;;;;;;;;;;;;;;;0.40;100.00;101141.97;5034902;28;19917;-35
2022/01/08 04:31:00;;;;;;;;;;;;;;;0.39;100.00;101147.44;5035117;28;19917;-35
2022/01/08 04:33:25;;;;;;;;;;;;;;;0.40;100.00;101154.44;5035350;28;19913;-35
2022/01/08 04:35:51;;;;;;;;;;;;;;;0.41;100.00;101156.09;5035128;28;19936;-35
2022/01/08 04:38:16;;;;;;;;;;;;;;;0.39;100.00;101153.63;5034704;28;19936;-35
2022/01/08 04:40:41;;;;;;;;;;;;;;;0.39;100.00;101152.75;5035445;28;20008;-35
2022/01/08 04:43:07;;;;;;;;;;;;;;;0.35;100.00;101159.41;5035396;28;20000;-35
2022/01/08 04:45:32;;;;;;;;;;;;;;;0.35;100.00;101160.22;5035423;28;19917;-35
2022/01/08 04:47:58;;;;;;;;;;;;;;;0.35;100.00;101149.59;5034873;28;19913;-35
2022/01/08 04:50:24;;;;;;;;;;;;;;;0.33;100.00;101150.72;5035070;28;19958;-35
2022/01/08 04:52:50;;;;;;;;;;;;;;;0.33;100.00;101156.88;5034569;28;20007;-35
2022/01/08 04:55:15;;;;;;;;;;;;;;;0.33;100.00;101156.03;5034765;28;19931;-35
2022/01/08 04:57:40;;;;;;;;;;;;;;;0.36;100.00;101163.72;5034926;28;19925;-35
2022/01/08 05:00:06;;;;;;;;;;;;;;;0.37;100.00;101178.69;5086886;28;20006;-35
2022/01/08 05:02:31;;;;;;;;;;;;;;;0.37;100.00;101174.19;5096899;28;19912;-35
2022/01/08 05:04:56;;;;;;;;;;;;;;;0.36;100.00;101166.38;5097139;28;20275;-35
2022/01/08 05:07:22;;;;;;;;;;;;;;;0.36;100.00;101169.03;5096785;28;19912;-35
2022/01/08 05:09:47;;;;;;;;;;;;;;;0.35;100.00;101162.06;5097331;28;19951;-35
2022/01/08 05:12:12;;;;;;;;;;;;;;;0.34;100.00;101176.31;5097405;28;19912;-35
2022/01/08 05:14:37;;;;;;;;;;;;;;;0.32;100.00;101173.84;5097030;28;20018;-35
2022/01/08 05:17:02;;;;;;;;;;;;;;;0.32;100.00;101173.84;5097445;28;19942;-35
2022/01/08 05:22:28;;;;;;;;;;;;;;;0.33;100.00;101180.81;5034163;28;20311;-35
2022/01/08 05:24:53;;;;;;;;;;;;;;;0.30;100.00;101173.16;5034473;28;20305;-35
2022/01/08 05:27:19;;;;;;;;;;;;;;;0.30;100.00;101172.34;5034628;28;19951;-35
2022/01/08 05:29:44;;;;;;;;;;;;;;;0.31;100.00;101174.00;5034172;28;19966;-36
2022/01/08 05:32:16;;;;;;;;;;;;;;;0.29;100.00;101173.31;5034290;28;20407;-36
2022/01/08 05:34:41;;;;;;;;;;;;;;;0.25;100.00;101173.63;5034284;28;19913;-35
2022/01/08 05:37:06;;;;;;;;;;;;;;;0.27;100.00;101175.31;5033127;28;20384;-36
2022/01/08 05:39:32;;;;;;;;;;;;;;;0.27;100.00;101181.44;5033766;28;19913;-35
2022/01/08 05:41:57;;;;;;;;;;;;;;;0.30;100.00;101175.84;5033518;28;20324;-36
2022/01/08 05:44:22;;;;;;;;;;;;;;;0.32;100.00;101173.00;5034023;28;20011;-36
2022/01/08 05:46:47;;;;;;;;;;;;;;;0.35;100.00;101170.88;5033316;28;19913;-36
2022/01/08 05:49:14;;;;;;;;;;;;;;;0.40;100.00;101184.53;5033409;28;19913;-36
2022/01/08 05:51:40;;;;;;;;;;;;;;;0.44;100.00;101185.03;5033236;28;19913;-35
2022/01/08 05:54:05;;;;;;;;;;;;;;;0.44;100.00;101180.59;5034134;28;19913;-36
2022/01/08 05:56:30;;;;;;;;;;;;;;;0.44;100.00;101185.91;5033236;28;20355;-36
2022/01/08 05:58:55;;;;;;;;;;;;;;;0.45;100.00;101192.06;5069434;28;20286;-35
2022/01/08 06:01:20;;;;;;;;;;;;;;;0.47;100.00;101192.72;5095883;28;20312;-36
2022/01/08 06:03:46;;;;;;;;;;;;;;;0.47;100.00;101190.91;5096002;28;20420;-36
2022/01/08 06:06:11;;;;;;;;;;;;;;;0.47;100.00;101195.38;5096412;28;19912;-35
2022/01/08 06:08:36;;;;;;;;;;;;;;;0.47;100.00;101206.03;5095657;28;20299;-35
2022/01/08 06:11:02;;;;;;;;;;;;;;;0.43;100.00;101208.16;5095474;28;20344;-35
2022/01/08 06:13:27;;;;;;;;;;;;;;;0.41;100.00;101201.34;5077727;28;19996;-35
2022/01/08 06:15:52;;;;;;;;;;;;;;;0.40;100.00;101212.97;5095187;28;19919;-35
2022/01/08 06:18:17;;;;;;;;;;;;;;;0.39;100.00;101211.28;5095158;28;19912;-35
2022/01/08 06:20:43;;;;;;;;;;;;;;;0.38;100.00;101212.28;5095320;28;19923;-35
2022/01/08 06:23:08;;;;;;;;;;;;;;;0.37;100.00;101221.25;5096210;28;19974;-36
2022/01/08 06:25:34;;;;;;;;;;;;;;;0.36;100.00;101214.28;5095394;28;20485;-35
2022/01/08 06:27:59;;;;;;;;;;;;;;;0.35;100.00;101213.44;5095271;28;19915;-35
2022/01/08 06:30:24;;;;;;;;;;;;;;;0.36;100.00;101220.44;5094828;28;19919;-35
2022/01/08 06:32:49;;;;;;;;;;;;;;;0.36;100.00;101217.75;5095114;28;19973;-35
2022/01/08 06:35:15;;;;;;;;;;;;;;;0.38;100.00;101209.63;5095048;28;19912;-36
2022/01/08 06:37:40;;;;;;;;;;;;;;;0.44;100.00;101211.66;5094759;28;19916;-36
2022/01/08 06:40:05;;;;;;;;;;;;;;;0.48;100.00;101210.34;5094761;28;19912;-36
2022/01/08 06:42:31;;;;;;;;;;;;;;;0.49;100.00;101207.56;5094803;28;19941;-36
2022/01/08 06:44:56;;;;;;;;;;;;;;;0.49;100.00;101199.56;5094556;28;19912;-35
2022/01/08 06:47:21;;;;;;;;;;;;;;;0.47;100.00;101192.72;5094775;28;19912;-35
2022/01/08 06:49:46;;;;;;;;;;;;;;;0.47;100.00;101195.38;5093704;28;19918;-36
2022/01/08 06:52:11;;;;;;;;;;;;;;;0.47;100.00;101188.22;5094573;28;19963;-35
2022/01/08 06:54:37;;;;;;;;;;;;;;;0.48;100.00;101191.72;5094744;28;19947;-36
2022/01/08 06:57:02;;;;;;;;;;;;;;;0.46;100.00;101191.06;5094331;28;19990;-36
2022/01/08 06:59:28;;;;;;;;;;;;;;;0.45;100.00;101182.25;5094602;28;19916;-36
2022/01/08 07:01:53;;;;;;;;;;;;;;;0.44;100.00;101190.38;5076468;28;19911;-36
2022/01/08 07:04:18;;;;;;;;;;;;;;;0.43;100.00;101194.03;5094454;28;19956;-36
2022/01/08 07:06:43;;;;;;;;;;;;;;;0.43;100.00;101196.69;5094611;28;20010;-36
2022/01/08 07:09:08;;;;;;;;;;;;;;;0.46;100.00;101197.22;5094425;28;20010;-36
2022/01/08 07:11:34;;;;;;;;;;;;;;;0.42;100.00;101197.69;5093927;28;19954;-36
2022/01/08 07:13:59;;;;;;;;;;;;;;;0.41;100.00;101196.84;5094404;28;19955;-36
2022/01/08 07:16:24;;;;;;;;;;;;;;;0.41;100.00;101202.16;5094451;28;19919;-36
2022/01/08 07:18:49;;;;;;;;;;;;;;;0.40;100.00;101186.38;5094318;28;19916;-35
2022/01/08 07:21:15;;;;;;;;;;;;;;;0.41;100.00;101188.88;5094803;28;19916;-36
2022/01/08 07:23:40;;;;;;;;;;;;;;;0.42;100.00;101187.88;5095098;28;19916;-35
2022/01/08 07:26:05;;;;;;;;;;;;;;;0.39;100.00;101182.88;5093894;28;19919;-36
2022/01/08 07:28:30;;;;;;;;;;;;;;;0.41;100.00;101191.53;5094434;28;19919;-36
2022/01/08 07:30:56;;;;;;;;;;;;;;;0.42;100.00;101192.34;5094075;28;20373;-36
2022/01/08 07:33:21;;;;;;;;;;;;;;;0.42;100.00;101187.03;5093659;28;19912;-36
2022/01/08 07:35:46;;;;;;;;;;;;;;;0.40;100.00;101181.88;5094229;28;19911;-36
2022/01/08 07:38:11;;;;;;;;;;;;;;;0.44;100.00;101187.69;5093840;28;19963;-36
2022/01/08 07:40:36;;;;;;;;;;;;;;;0.45;100.00;101181.41;5094166;28;19912;-36
2022/01/08 07:43:02;;;;;;;;;;;;;;;0.46;100.00;101183.06;5094199;28;19916;-36
2022/01/08 07:45:28;;;;;;;;;;;;;;;0.46;100.00;101183.91;5093770;28;19912;-36
2022/01/08 07:47:53;;;;;;;;;;;;;;;0.47;100.00;101184.75;5094161;28;19919;-35
2022/01/08 07:50:18;;;;;;;;;;;;;;;0.44;100.00;101174.41;5094121;28;19927;-36
2022/01/08 07:52:43;;;;;;;;;;;;;;;0.38;100.00;101172.38;5093428;28;20310;-36
2022/01/08 07:55:09;;;;;;;;;;;;;;;0.36;100.00;101174.38;5094352;28;19919;-41
2022/01/08 07:57:35;;;;;;;;;;;;;;;0.35;100.00;101170.88;5093660;28;19923;-36
2022/01/08 08:00:00;;;;;;;;;;;;;;;0.35;100.00;101164.72;5093514;28;19916;-36
2022/01/08 08:02:25;;;;;;;;;;;;;;;0.39;100.00;101171.38;5093701;28;19912;-36
2022/01/08 08:04:50;;;;;;;;;;;;;;;0.43;100.00;101167.41;5093920;28;20348;-36
2022/01/08 08:07:29;;;;;;;;;;;;;;;0.46;100.00;101167.94;5093793;28;20277;-36
2022/01/08 08:09:54;;;;;;;;;;;;;;;0.48;100.00;101162.44;5094119;28;20344;-36
2022/01/08 08:12:19;;;;;;;;;;;;;;;0.48;100.00;101171.28;5093231;28;19955;-36
2022/01/08 08:14:45;;;;;;;;;;;;;;;0.49;100.00;101167.63;5076306;28;19912;-36
2022/01/08 08:17:10;;;;;;;;;;;;;;;0.50;100.00;101163.16;5093256;28;19981;-36
2022/01/08 08:19:35;;;;;;;;;;;;;;;0.54;100.00;101163.66;5093110;28;19912;-36
2022/01/08 08:22:00;;;;;;;;;;;;;;;0.55;100.00;101160.00;5093578;28;19912;-36
2022/01/08 08:24:25;;;;;;;;;;;;;;;0.56;100.00;101153.69;5093758;28;19935;-36
2022/01/08 08:26:51;;;;;;;;;;;;;;;0.57;100.00;101150.88;5093420;28;19912;-36
2022/01/08 08:29:16;;;;;;;;;;;;;;;0.60;100.00;101150.56;5093203;28;20307;-36
2022/01/08 08:31:41;;;;;;;;;;;;;;;0.61;100.00;101151.41;5075599;28;20344;-36
2022/01/08 08:34:06;;;;;;;;;;;;;;;0.64;100.00;101143.94;5093602;28;19919;-36
2022/01/08 08:36:32;;;;;;;;;;;;;;;0.67;100.00;101148.91;5093308;28;19912;-36
2022/01/08 08:38:57;;;;;;;;;;;;;;;0.69;100.00;101144.28;5075478;28;19916;-36
2022/01/08 08:41:22;;;;;;;;;;;;;;;0.71;100.00;101139.63;5093027;28;20014;-36
2022/01/08 08:43:47;;;;;;;;;;;;;;;0.73;100.00;101139.47;5093349;28;20383;-36
2022/01/08 08:46:12;;;;;;;;;;;;;;;0.76;100.00;101144.47;5092888;28;20375;-36
2022/01/08 08:48:38;;;;;;;;;;;;;;;0.75;100.00;101143.66;5093004;28;19912;-36
2022/01/08 08:51:03;;;;;;;;;;;;;;;0.74;100.00;101139.31;5093371;28;19912;-36
2022/01/08 08:53:28;;;;;;;;;;;;;;;0.76;100.00;101137.31;5093570;28;20455;-36
2022/01/08 08:55:53;;;;;;;;;;;;;;;0.79;100.00;101128.19;5093142;28;19965;-36
2022/01/08 08:58:19;;;;;;;;;;;;;;;0.82;100.00;101129.69;5093134;28;19955;-36
2022/01/08 09:00:44;;;;;;;;;;;;;;;0.83;100.00;101132.22;5093331;28;20352;-36
2022/01/08 09:03:09;;;;;;;;;;;;;;;0.83;100.00;101134.88;5093291;28;20425;-36
2022/01/08 09:05:35;;;;;;;;;;;;;;;0.86;100.00;101136.38;5093012;28;20429;-36
2022/01/08 09:08:00;;;;;;;;;;;;;;;0.88;100.00;101142.34;5093560;28;19959;-36
2022/01/08 09:10:25;;;;;;;;;;;;;;;0.90;100.00;101135.06;5093536;28;19919;-36
2022/01/08 09:12:52;;;;;;;;;;;;;;;0.93;100.00;101142.72;5095348;28;20302;-36
2022/01/08 09:15:21;;;;;;;;;;;;;;;0.98;100.00;101140.41;5096848;28;19912;-36
2022/01/08 09:17:48;;;;;;;;;;;;;;;0.96;100.00;101137.06;5096542;28;19912;-36
2022/01/08 09:20:13;;;;;;;;;;;;;;;0.97;100.00;101134.22;5096314;28;19916;-36
2022/01/08 09:22:39;;;;;;;;;;;;;;;0.98;100.00;101122.59;5096531;28;19912;-36
2022/01/08 09:25:06;;;;;;;;;;;;;;;1.01;100.00;101124.94;5096354;28;20335;-36
2022/01/08 09:27:32;;;;;;;;;;;;;;;1.03;100.00;101122.13;5096213;28;20375;-35
2022/01/08 09:29:57;;;;;;;;;;;;;;;1.05;100.00;101116.63;5096505;28;19919;-36
2022/01/08 09:32:23;;;;;;;;;;;;;;;1.06;100.00;101116.44;5096122;28;19912;-36
2022/01/08 09:34:49;;;;;;;;;;;;;;;1.09;100.00;101108.16;5096407;28;19912;-36
2022/01/08 09:37:15;;;;;;;;;;;;;;;1.14;100.00;101099.66;5096292;28;19998;-36
2022/01/08 09:39:40;;;;;;;;;;;;;;;1.17;100.00;101102.84;5096382;28;20372;-36
2022/01/08 09:42:08;;;;;;;;;;;;;;;1.20;100.00;101110.50;5096045;28;19985;-36
2022/01/08 09:44:34;;;;;;;;;;;;;;;1.24;100.00;101108.34;5096291;28;19912;-36
2022/01/08 09:46:59;;;;;;;;;;;;;;;1.29;100.00;101098.03;5095906;28;19919;-36
2022/01/08 09:49:24;;;;;;;;;;;;;;;1.32;100.00;101086.19;5096442;28;19965;-36
2022/01/08 09:51:49;;;;;;;;;;;;;;;1.34;100.00;101085.06;5096463;28;20011;-36
2022/01/08 09:54:14;;;;;;;;;;;;;;;1.34;100.00;101082.38;5095666;28;19919;-35
2022/01/08 09:56:40;;;;;;;;;;;;;;;1.36;100.00;101079.53;5095368;28;19923;-36
2022/01/08 09:59:05;;;;;;;;;;;;;;;1.35;100.00;101061.91;5095602;28;19912;-36
2022/01/08 10:01:31;;;;;;;;;;;;;;;1.35;100.00;101056.56;5095569;28;19919;-36
2022/01/08 10:04:01;;;;;;;;;;;;;;;1.40;100.00;101054.25;5095525;28;19912;-35
2022/01/08 10:06:30;;;;;;;;;;;;;;;1.41;100.00;101054.06;5096130;28;19912;-35
2022/01/08 10:08:55;;;;;;;;;;;;;;;1.45;100.00;101044.75;5095728;28;19912;-35
2022/01/08 10:11:21;;;;;;;;;;;;;;;1.51;100.00;101030.78;5095392;28;19957;-35
2022/01/08 10:13:50;;;;;;;;;;;;;;;1.55;100.00;101025.91;5096397;28;19935;-35
2022/01/08 10:19:02;;;;;;;;;;;;;;;1.58;100.00;100998.09;5095589;28;19946;-35
2022/01/08 10:21:28;;;;;;;;;;;;;;;1.61;100.00;100992.41;5095727;28;20343;-36
2022/01/08 10:23:56;;;;;;;;;;;;;;;1.64;100.00;100992.94;5094827;28;20433;-36
2022/01/08 10:26:23;;;;;;;;;;;;;;;1.67;100.00;100984.59;5095096;28;19916;-36
2022/01/08 10:28:52;;;;;;;;;;;;;;;1.72;100.00;100978.75;5095648;28;20279;-35
2022/01/08 10:31:25;;;;;;;;;;;;;;;1.76;100.00;100970.25;5095416;28;19918;-36
2022/01/08 10:33:50;;;;;;;;;;;;;;;1.82;100.00;100967.91;5095735;28;20269;-36
2022/01/08 10:36:23;;;;;;;;;;;;;;;1.84;100.00;100977.38;5094836;28;19912;-35
2022/01/08 10:38:52;;;;;;;;;;;;;;;1.86;100.00;100961.22;5095702;28;19912;-36
2022/01/08 10:41:17;;;;;;;;;;;;;;;1.86;100.00;100953.25;5095528;28;20295;-36
2022/01/08 10:43:44;;;;;;;;;;;;;;;1.86;100.00;100948.72;5095401;28;19919;-36
2022/01/08 10:46:11;;;;;;;;;;;;;;;1.86;100.00;100942.56;5094510;28;19939;-36
2022/01/08 10:48:37;;;;;;;;;;;;;;;1.88;100.00;100940.56;5095301;28;19989;-36
2022/01/08 10:51:12;;;;;;;;;;;;;;;1.89;100.00;100934.22;5094499;28;20406;-36
2022/01/08 10:53:51;;;;;;;;;;;;;;;1.91;100.00;100919.72;5094842;28;20279;-36
2022/01/08 10:56:24;;;;;;;;;;;;;;;1.92;100.00;100915.22;5094939;28;19920;-36
2022/01/08 10:58:54;;;;;;;;;;;;;;;1.91;100.00;100911.72;5094209;28;19912;-36
2022/01/08 11:01:36;;;;;;;;;;;;;;;1.96;100.00;100905.84;5094236;28;20449;-36
2022/01/08 11:04:01;;;;;;;;;;;;;;;2.00;100.00;100896.47;5094108;28;19912;-36
2022/01/08 11:06:26;;;;;;;;;;;;;;;2.04;100.00;100887.13;5094773;28;19992;-36
2022/01/08 11:09:02;;;;;;;;;;;;;;;2.05;100.00;100881.66;5094516;28;20416;-36
2022/01/08 11:11:30;;;;;;;;;;;;;;;2.06;100.00;100880.63;5094369;28;19958;-35
2022/01/08 11:14:06;;;;;;;;;;;;;;;2.12;100.00;100880.94;5094371;28;19918;-36
2022/01/08 11:16:32;;;;;;;;;;;;;;;2.15;100.00;100873.44;5094775;28;19912;-36
2022/01/08 11:18:59;;;;;;;;;;;;;;;2.20;100.00;100867.56;5094248;28;20017;-36
2022/01/08 11:21:29;;;;;;;;;;;;;;;2.21;100.00;100846.03;5094019;28;19955;-35
2022/01/08 11:23:55;;;;;;;;;;;;;;;2.24;100.00;100844.84;5094528;28;19922;-36
2022/01/08 11:26:21;;;;;;;;;;;;;;;2.28;100.00;100846.97;5094032;28;19912;-36
2022/01/08 11:28:48;;;;;;;;;;;;;;;2.33;100.00;100839.25;5094178;28;19912;-35
2022/01/08 11:31:15;;;;;;;;;;;;;;;2.37;100.00;100834.41;5093985;28;20007;-36
2022/01/08 11:33:44;;;;;;;;;;;;;;;2.43;100.00;100832.88;5094088;28;19916;-36
2022/01/08 11:36:10;;;;;;;;;;;;;;;2.49;100.00;100826.81;5093816;28;19947;-36
2022/01/08 11:38:36;;;;;;;;;;;;;;;2.53;100.00;100806.75;5094142;28;19918;-35
2022/01/08 11:41:01;;;;;;;;;;;;;;;2.62;100.00;100805.69;5094297;28;19998;-36
2022/01/08 11:43:28;;;;;;;;;;;;;;;2.62;100.00;100795.00;5094645;28;19919;-36
2022/01/08 11:45:58;;;;;;;;;;;;;;;2.65;100.00;100800.00;5093858;28;19912;-36
2022/01/08 11:48:25;;;;;;;;;;;;;;;2.67;100.00;100789.97;5094375;28;20002;-36
2022/01/08 11:50:55;;;;;;;;;;;;;;;2.67;100.00;100773.09;5076538;28;19916;-35
2022/01/08 11:53:22;;;;;;;;;;;;;;;2.68;99.89;100770.25;5094228;28;19916;-36
2022/01/08 11:55:53;;;;;;;;;;;;;;;2.70;99.52;100754.91;5093878;28;19912;-36
2022/01/08 11:58:23;;;;;;;;;;;;;;;2.74;99.87;100750.03;5094038;28;19964;-37
2022/01/08 12:00:56;;;;;;;;;;;;;;;2.74;99.12;100740.19;5076196;28;19916;-37
2022/01/08 12:03:23;;;;;;;;;;;;;;;2.77;99.45;100733.63;5093393;28;19919;-37
2022/01/08 12:05:49;;;;;;;;;;;;;;;2.77;98.58;100731.78;5093405;28;20364;-37
2022/01/08 12:08:16;;;;;;;;;;;;;;;2.78;98.70;100724.59;5093596;28;19916;-37
2022/01/08 12:10:57;;;;;;;;;;;;;;;2.79;98.01;100715.59;5093634;28;19947;-37
2022/01/08 12:13:41;;;;;;;;;;;;;;;2.79;98.23;100712.91;5093418;28;19918;-37
2022/01/08 12:16:26;;;;;;;;;;;;;;;2.79;98.05;100710.25;5094169;28;19916;-37
2022/01/08 12:18:52;;;;;;;;;;;;;;;2.78;98.07;100693.41;5093936;28;19919;-37
2022/01/08 12:21:37;;;;;;;;;;;;;;;2.81;97.69;100684.19;5093550;28;20041;-37
2022/01/08 12:24:20;;;;;;;;;;;;;;;2.79;97.38;100668.34;5075997;28;20010;-37
2022/01/08 12:26:46;;;;;;;;;;;;;;;2.81;97.89;100660.97;5093889;28;19955;-36
2022/01/08 12:29:30;;;;;;;;;;;;;;;2.83;97.38;100645.59;5093369;28;19973;-37
2022/01/08 12:32:15;;;;;;;;;;;;;;;2.86;97.39;100639.06;5093353;28;20327;-37
2022/01/08 12:34:48;;;;;;;;;;;;;;;2.89;96.04;100622.66;5093500;28;19919;-37
2022/01/08 12:37:13;;;;;;;;;;;;;;;2.93;95.98;100607.06;5093292;28;20007;-37
2022/01/08 12:39:41;;;;;;;;;;;;;;;2.96;96.33;100598.69;5093247;28;19989;-37
2022/01/08 12:42:19;;;;;;;;;;;;;;;2.97;95.59;100585.16;5093268;28;20252;-37
2022/01/08 12:44:55;;;;;;;;;;;;;;;3.01;95.38;100581.09;5093319;28;19951;-37
2022/01/08 12:47:40;;;;;;;;;;;;;;;3.07;95.28;100571.50;5095574;28;19940;-37
2022/01/08 12:50:32;;;;;;;;;;;;;;;3.12;95.19;100561.06;5096879;28;19919;-37
2022/01/08 12:53:03;;;;;;;;;;;;;;;3.18;95.40;100546.16;5093865;28;19912;-37
2022/01/08 12:55:28;;;;;;;;;;;;;;;3.20;95.03;100541.41;5096999;28;19912;-37
2022/01/08 12:57:53;;;;;;;;;;;;;;;3.23;94.17;100533.88;5097343;28;19919;-37
2022/01/08 13:00:19;;;;;;;;;;;;;;;3.26;95.29;100517.44;5096958;28;19916;-34
2022/01/08 13:02:48;;;;;;;;;;;;;;;3.23;94.29;100493.78;5097580;28;19912;-37
2022/01/08 13:05:13;;;;;;;;;;;;;;;3.23;95.60;100492.97;5096884;28;20006;-37